sensor_id;sensor_type;location;lat;lon;timestamp;temperature;humidity
18712;DHT22;9485;49.386;8.674;2022-09-17T00:02:28;14.30;86.00
18712;DHT22;9485;49.386;8.674;2022-09-17T00:07:50;14.20;86.20
18712;DHT22;9485;49.386;8.674;2022-09-17T00:13:11;14.20;86.50
18712;DHT22;9485;49.386;8.674;2022-09-17T00:18:32;14.20;86.80
18712;DHT22;9485;49.386;8.674;2022-09-17T00:23:58;14.10;86.80
18712;DHT22;9485;49.386;8.674;2022-09-17T00:29:20;14.10;86.90
18712;DHT22;9485;49.386;8.674;2022-09-17T00:34:41;14.00;86.90
18712;DHT22;9485;49.386;8.674;2022-09-17T00:40:04;14.00;87.10
18712;DHT22;9485;49.386;8.674;2022-09-17T00:45:26;14.00;87.00
18712;DHT22;9485;49.386;8.674;2022-09-17T00:50:51;13.90;87.10
18712;DHT22;9485;49.386;8.674;2022-09-17T00:56:18;13.80;87.20
18712;DHT22;9485;49.386;8.674;2022-09-17T01:01:42;13.80;87.20
18712;DHT22;9485;49.386;8.674;2022-09-17T01:07:08;13.80;87.60
18712;DHT22;9485;49.386;8.674;2022-09-17T01:12:48;13.70;87.90
18712;DHT22;9485;49.386;8.674;2022-09-17T01:18:30;13.80;88.00
18712;DHT22;9485;49.386;8.674;2022-09-17T01:24:47;13.80;88.10
18712;DHT22;9485;49.386;8.674;2022-09-17T01:30:30;13.80;87.50
18712;DHT22;9485;49.386;8.674;2022-09-17T01:36:05;13.80;87.80
18712;DHT22;9485;49.386;8.674;2022-09-17T01:41:42;13.80;88.30
18712;DHT22;9485;49.386;8.674;2022-09-17T01:47:15;13.80;88.30
18712;DHT22;9485;49.386;8.674;2022-09-17T01:52:43;13.80;88.20
18712;DHT22;9485;49.386;8.674;2022-09-17T01:58:13;13.70;88.30
18712;DHT22;9485;49.386;8.674;2022-09-17T02:03:42;13.70;88.00
18712;DHT22;9485;49.386;8.674;2022-09-17T02:09:09;13.60;88.00
18712;DHT22;9485;49.386;8.674;2022-09-17T02:14:37;13.60;88.20
18712;DHT22;9485;49.386;8.674;2022-09-17T02:20:05;13.50;88.30
18712;DHT22;9485;49.386;8.674;2022-09-17T02:25:32;13.50;88.30
18712;DHT22;9485;49.386;8.674;2022-09-17T02:30:56;13.40;88.10
18712;DHT22;9485;49.386;8.674;2022-09-17T02:36:18;13.40;88.30
18712;DHT22;9485;49.386;8.674;2022-09-17T02:41:52;14.60;89.10
18712;DHT22;9485;49.386;8.674;2022-09-17T02:47:45;13.30;88.20
18712;DHT22;9485;49.386;8.674;2022-09-17T02:53:30;13.20;88.20
18712;DHT22;9485;49.386;8.674;2022-09-17T02:59:03;13.20;88.50
18712;DHT22;9485;49.386;8.674;2022-09-17T03:04:33;13.20;88.90
18712;DHT22;9485;49.386;8.674;2022-09-17T03:09:56;13.20;89.30
18712;DHT22;9485;49.386;8.674;2022-09-17T03:15:17;13.20;89.40
18712;DHT22;9485;49.386;8.674;2022-09-17T03:20:38;13.30;89.50
18712;DHT22;9485;49.386;8.674;2022-09-17T03:26:00;13.30;89.80
18712;DHT22;9485;49.386;8.674;2022-09-17T03:31:21;13.40;90.00
18712;DHT22;9485;49.386;8.674;2022-09-17T03:36:42;13.40;90.20
18712;DHT22;9485;49.386;8.674;2022-09-17T03:42:05;13.50;90.10
18712;DHT22;9485;49.386;8.674;2022-09-17T03:47:25;13.50;90.10
18712;DHT22;9485;49.386;8.674;2022-09-17T03:52:46;13.60;90.10
18712;DHT22;9485;49.386;8.674;2022-09-17T03:58:08;13.70;90.20
18712;DHT22;9485;49.386;8.674;2022-09-17T04:03:30;13.70;90.30
18712;DHT22;9485;49.386;8.674;2022-09-17T04:08:51;13.70;90.20
18712;DHT22;9485;49.386;8.674;2022-09-17T04:14:13;13.80;90.20
18712;DHT22;9485;49.386;8.674;2022-09-17T04:19:34;13.90;90.00
18712;DHT22;9485;49.386;8.674;2022-09-17T04:24:55;13.90;89.80
18712;DHT22;9485;49.386;8.674;2022-09-17T04:30:17;13.90;89.50
18712;DHT22;9485;49.386;8.674;2022-09-17T04:35:37;13.90;89.10
18712;DHT22;9485;49.386;8.674;2022-09-17T04:40:58;13.90;89.30
18712;DHT22;9485;49.386;8.674;2022-09-17T04:46:20;13.90;89.10
18712;DHT22;9485;49.386;8.674;2022-09-17T04:51:41;13.90;89.00
18712;DHT22;9485;49.386;8.674;2022-09-17T04:57:01;13.90;89.00
18712;DHT22;9485;49.386;8.674;2022-09-17T05:02:24;13.90;89.00
18712;DHT22;9485;49.386;8.674;2022-09-17T05:07:45;13.80;88.70
18712;DHT22;9485;49.386;8.674;2022-09-17T05:13:06;13.90;88.80
18712;DHT22;9485;49.386;8.674;2022-09-17T05:18:28;13.90;88.50
18712;DHT22;9485;49.386;8.674;2022-09-17T05:23:48;13.90;88.00
18712;DHT22;9485;49.386;8.674;2022-09-17T05:29:09;13.80;88.10
18712;DHT22;9485;49.386;8.674;2022-09-17T05:34:31;13.70;88.10
18712;DHT22;9485;49.386;8.674;2022-09-17T05:39:52;13.60;88.50
18712;DHT22;9485;49.386;8.674;2022-09-17T05:45:13;13.60;88.90
18712;DHT22;9485;49.386;8.674;2022-09-17T05:50:35;13.50;88.80
18712;DHT22;9485;49.386;8.674;2022-09-17T05:55:55;13.30;89.10
18712;DHT22;9485;49.386;8.674;2022-09-17T06:01:17;13.20;89.60
18712;DHT22;9485;49.386;8.674;2022-09-17T06:06:39;13.20;90.00
18712;DHT22;9485;49.386;8.674;2022-09-17T06:12:01;13.10;90.10
18712;DHT22;9485;49.386;8.674;2022-09-17T06:17:21;13.10;90.30
18712;DHT22;9485;49.386;8.674;2022-09-17T06:22:43;13.10;90.30
18712;DHT22;9485;49.386;8.674;2022-09-17T06:28:04;13.00;90.30
18712;DHT22;9485;49.386;8.674;2022-09-17T06:33:27;13.00;90.50
18712;DHT22;9485;49.386;8.674;2022-09-17T06:38:49;13.00;90.50
18712;DHT22;9485;49.386;8.674;2022-09-17T06:44:10;13.00;90.70
18712;DHT22;9485;49.386;8.674;2022-09-17T06:49:30;13.10;90.80
18712;DHT22;9485;49.386;8.674;2022-09-17T06:54:52;13.10;90.90
18712;DHT22;9485;49.386;8.674;2022-09-17T07:00:14;13.10;91.00
18712;DHT22;9485;49.386;8.674;2022-09-17T07:05:35;13.20;91.10
18712;DHT22;9485;49.386;8.674;2022-09-17T07:10:57;13.20;91.10
18712;DHT22;9485;49.386;8.674;2022-09-17T07:16:18;13.30;91.10
18712;DHT22;9485;49.386;8.674;2022-09-17T07:21:38;13.50;91.20
18712;DHT22;9485;49.386;8.674;2022-09-17T07:27:02;13.40;91.30
18712;DHT22;9485;49.386;8.674;2022-09-17T07:32:22;13.50;91.30
18712;DHT22;9485;49.386;8.674;2022-09-17T07:37:44;13.50;91.30
18712;DHT22;9485;49.386;8.674;2022-09-17T07:43:07;13.60;91.40
18712;DHT22;9485;49.386;8.674;2022-09-17T07:48:28;13.60;91.40
18712;DHT22;9485;49.386;8.674;2022-09-17T07:53:50;13.70;91.50
18712;DHT22;9485;49.386;8.674;2022-09-17T07:59:12;13.80;91.50
18712;DHT22;9485;49.386;8.674;2022-09-17T08:04:33;14.00;91.60
18712;DHT22;9485;49.386;8.674;2022-09-17T08:09:54;14.10;91.60
18712;DHT22;9485;49.386;8.674;2022-09-17T08:15:17;14.30;91.50
18712;DHT22;9485;49.386;8.674;2022-09-17T08:20:38;14.40;91.70
18712;DHT22;9485;49.386;8.674;2022-09-17T08:26:00;14.50;92.00
18712;DHT22;9485;49.386;8.674;2022-09-17T08:31:24;14.90;92.30
18712;DHT22;9485;49.386;8.674;2022-09-17T08:36:46;15.10;91.70
18712;DHT22;9485;49.386;8.674;2022-09-17T08:42:11;15.40;91.50
18712;DHT22;9485;49.386;8.674;2022-09-17T08:47:42;15.60;91.10
18712;DHT22;9485;49.386;8.674;2022-09-17T08:53:21;15.80;90.90
18712;DHT22;9485;49.386;8.674;2022-09-17T08:59:15;15.90;90.10
18712;DHT22;9485;49.386;8.674;2022-09-17T09:04:57;16.00;89.10
18712;DHT22;9485;49.386;8.674;2022-09-17T09:10:25;16.00;87.40
18712;DHT22;9485;49.386;8.674;2022-09-17T09:15:54;16.10;89.60
18712;DHT22;9485;49.386;8.674;2022-09-17T09:21:25;16.30;90.10
18712;DHT22;9485;49.386;8.674;2022-09-17T09:26:54;16.70;89.50
18712;DHT22;9485;49.386;8.674;2022-09-17T09:32:35;17.00;88.00
18712;DHT22;9485;49.386;8.674;2022-09-17T09:38:28;17.20;88.30
18712;DHT22;9485;49.386;8.674;2022-09-17T09:43:59;17.70;86.20
18712;DHT22;9485;49.386;8.674;2022-09-17T09:49:32;18.10;86.40
18712;DHT22;9485;49.386;8.674;2022-09-17T09:55:29;18.20;83.60
18712;DHT22;9485;49.386;8.674;2022-09-17T10:01:13;18.10;83.30
18712;DHT22;9485;49.386;8.674;2022-09-17T10:06:39;17.90;85.40
18712;DHT22;9485;49.386;8.674;2022-09-17T10:12:04;18.30;88.50
18712;DHT22;9485;49.386;8.674;2022-09-17T10:17:34;19.40;88.20
18712;DHT22;9485;49.386;8.674;2022-09-17T10:22:55;20.50;86.80
18712;DHT22;9485;49.386;8.674;2022-09-17T10:28:42;21.10;82.50
18712;DHT22;9485;49.386;8.674;2022-09-17T10:34:18;21.40;76.70
18712;DHT22;9485;49.386;8.674;2022-09-17T10:39:40;21.50;73.40
18712;DHT22;9485;49.386;8.674;2022-09-17T10:45:10;21.30;75.90
18712;DHT22;9485;49.386;8.674;2022-09-17T10:50:47;20.80;70.80
18712;DHT22;9485;49.386;8.674;2022-09-17T10:56:15;20.20;73.90
18712;DHT22;9485;49.386;8.674;2022-09-17T11:01:56;19.90;74.60
18712;DHT22;9485;49.386;8.674;2022-09-17T11:07:31;19.90;75.60
18712;DHT22;9485;49.386;8.674;2022-09-17T11:13:11;20.10;76.90
18712;DHT22;9485;49.386;8.674;2022-09-17T11:18:42;20.40;75.30
18712;DHT22;9485;49.386;8.674;2022-09-17T11:24:25;20.60;75.80
18712;DHT22;9485;49.386;8.674;2022-09-17T11:30:38;20.60;71.90
18712;DHT22;9485;49.386;8.674;2022-09-17T11:36:12;20.70;73.60
18712;DHT22;9485;49.386;8.674;2022-09-17T11:41:40;20.80;73.40
18712;DHT22;9485;49.386;8.674;2022-09-17T11:47:09;20.80;72.00
18712;DHT22;9485;49.386;8.674;2022-09-17T11:52:39;20.90;71.10
18712;DHT22;9485;49.386;8.674;2022-09-17T11:58:10;20.90;70.00
18712;DHT22;9485;49.386;8.674;2022-09-17T12:03:39;20.90;69.60
18712;DHT22;9485;49.386;8.674;2022-09-17T12:09:11;20.90;70.20
18712;DHT22;9485;49.386;8.674;2022-09-17T12:14:43;20.80;67.70
18712;DHT22;9485;49.386;8.674;2022-09-17T12:20:21;20.70;69.40
18712;DHT22;9485;49.386;8.674;2022-09-17T12:25:53;20.60;67.70
18712;DHT22;9485;49.386;8.674;2022-09-17T12:31:27;20.60;70.10
18712;DHT22;9485;49.386;8.674;2022-09-17T12:36:59;20.70;70.60
18712;DHT22;9485;49.386;8.674;2022-09-17T12:42:40;20.80;70.40
18712;DHT22;9485;49.386;8.674;2022-09-17T13:00:52;22.70;70.40
18712;DHT22;9485;49.386;8.674;2022-09-17T13:06:41;23.20;68.90
18712;DHT22;9485;49.386;8.674;2022-09-17T13:12:25;23.50;64.40
18712;DHT22;9485;49.386;8.674;2022-09-17T13:17:59;23.80;65.00
18712;DHT22;9485;49.386;8.674;2022-09-17T13:23:32;24.00;62.20
18712;DHT22;9485;49.386;8.674;2022-09-17T13:28:57;24.10;63.90
18712;DHT22;9485;49.386;8.674;2022-09-17T13:34:30;24.30;65.60
18712;DHT22;9485;49.386;8.674;2022-09-17T13:39:51;24.30;60.00
18712;DHT22;9485;49.386;8.674;2022-09-17T13:45:13;24.20;63.00
18712;DHT22;9485;49.386;8.674;2022-09-17T13:50:38;23.90;63.20
18712;DHT22;9485;49.386;8.674;2022-09-17T13:56:00;23.70;62.70
18712;DHT22;9485;49.386;8.674;2022-09-17T14:02:02;23.80;64.30
18712;DHT22;9485;49.386;8.674;2022-09-17T14:07:49;23.70;60.90
18712;DHT22;9485;49.386;8.674;2022-09-17T14:19:03;23.30;61.70
18712;DHT22;9485;49.386;8.674;2022-09-17T14:24:47;23.30;64.20
18712;DHT22;9485;49.386;8.674;2022-09-17T14:30:16;23.10;61.60
18712;DHT22;9485;49.386;8.674;2022-09-17T14:35:51;22.90;61.70
18712;DHT22;9485;49.386;8.674;2022-09-17T14:41:20;22.60;60.80
18712;DHT22;9485;49.386;8.674;2022-09-17T14:46:49;22.20;61.60
18712;DHT22;9485;49.386;8.674;2022-09-17T14:52:23;22.00;60.70
18712;DHT22;9485;49.386;8.674;2022-09-17T14:57:49;21.80;61.40
18712;DHT22;9485;49.386;8.674;2022-09-17T15:03:20;21.60;59.80
18712;DHT22;9485;49.386;8.674;2022-09-17T15:08:44;21.40;59.70
18712;DHT22;9485;49.386;8.674;2022-09-17T15:14:11;21.20;60.90
18712;DHT22;9485;49.386;8.674;2022-09-17T15:19:38;21.10;60.40
18712;DHT22;9485;49.386;8.674;2022-09-17T15:25:08;22.20;63.20
18712;DHT22;9485;49.386;8.674;2022-09-17T15:30:36;20.70;62.60
18712;DHT22;9485;49.386;8.674;2022-09-17T15:35:59;20.50;62.50
18712;DHT22;9485;49.386;8.674;2022-09-17T15:41:31;20.30;62.40
18712;DHT22;9485;49.386;8.674;2022-09-17T15:46:54;20.10;62.50
18712;DHT22;9485;49.386;8.674;2022-09-17T15:52:33;19.90;62.30
18712;DHT22;9485;49.386;8.674;2022-09-17T15:57:55;19.80;60.90
18712;DHT22;9485;49.386;8.674;2022-09-17T16:09:52;19.50;63.50
18712;DHT22;9485;49.386;8.674;2022-09-17T16:15:15;19.40;63.50
18712;DHT22;9485;49.386;8.674;2022-09-17T16:20:38;19.30;66.20
18712;DHT22;9485;49.386;8.674;2022-09-17T16:25:59;19.30;65.20
18712;DHT22;9485;49.386;8.674;2022-09-17T16:31:20;19.30;65.00
18712;DHT22;9485;49.386;8.674;2022-09-17T16:36:42;19.30;65.50
18712;DHT22;9485;49.386;8.674;2022-09-17T16:42:03;19.20;64.50
18712;DHT22;9485;49.386;8.674;2022-09-17T16:47:23;19.10;65.50
18712;DHT22;9485;49.386;8.674;2022-09-17T16:52:46;18.90;65.00
18712;DHT22;9485;49.386;8.674;2022-09-17T16:58:07;18.70;66.00
18712;DHT22;9485;49.386;8.674;2022-09-17T17:03:28;18.50;66.30
18712;DHT22;9485;49.386;8.674;2022-09-17T17:08:50;18.30;66.90
18712;DHT22;9485;49.386;8.674;2022-09-17T17:14:11;17.90;67.50
18712;DHT22;9485;49.386;8.674;2022-09-17T17:19:32;17.50;68.60
18712;DHT22;9485;49.386;8.674;2022-09-17T17:24:54;17.10;69.80
18712;DHT22;9485;49.386;8.674;2022-09-17T17:30:16;16.80;71.60
18712;DHT22;9485;49.386;8.674;2022-09-17T17:35:38;16.50;72.60
18712;DHT22;9485;49.386;8.674;2022-09-17T17:41:05;16.30;73.90
18712;DHT22;9485;49.386;8.674;2022-09-17T17:46:27;16.10;75.20
18712;DHT22;9485;49.386;8.674;2022-09-17T17:51:48;16.00;75.60
18712;DHT22;9485;49.386;8.674;2022-09-17T17:57:10;15.90;76.00
18712;DHT22;9485;49.386;8.674;2022-09-17T18:02:30;15.70;76.50
18712;DHT22;9485;49.386;8.674;2022-09-17T18:07:51;15.60;77.10
18712;DHT22;9485;49.386;8.674;2022-09-17T18:13:13;15.40;77.30
18712;DHT22;9485;49.386;8.674;2022-09-17T18:18:35;15.30;77.70
18712;DHT22;9485;49.386;8.674;2022-09-17T18:23:57;15.10;78.00
18712;DHT22;9485;49.386;8.674;2022-09-17T18:29:19;15.00;79.20
18712;DHT22;9485;49.386;8.674;2022-09-17T18:34:40;14.80;79.10
18712;DHT22;9485;49.386;8.674;2022-09-17T18:40:01;14.70;79.60
18712;DHT22;9485;49.386;8.674;2022-09-17T18:45:23;14.70;80.20
18712;DHT22;9485;49.386;8.674;2022-09-17T18:50:54;14.60;80.60
18712;DHT22;9485;49.386;8.674;2022-09-17T18:56:18;14.50;81.10
18712;DHT22;9485;49.386;8.674;2022-09-17T19:01:41;14.40;81.30
18712;DHT22;9485;49.386;8.674;2022-09-17T19:07:02;14.40;81.80
18712;DHT22;9485;49.386;8.674;2022-09-17T19:12:22;14.30;82.00
18712;DHT22;9485;49.386;8.674;2022-09-17T19:17:44;14.30;82.70
18712;DHT22;9485;49.386;8.674;2022-09-17T19:23:06;14.30;83.40
18712;DHT22;9485;49.386;8.674;2022-09-17T19:28:27;14.40;83.80
18712;DHT22;9485;49.386;8.674;2022-09-17T19:33:49;14.40;84.00
18712;DHT22;9485;49.386;8.674;2022-09-17T19:39:09;14.40;84.30
18712;DHT22;9485;49.386;8.674;2022-09-17T19:44:30;14.40;84.50
18712;DHT22;9485;49.386;8.674;2022-09-17T19:49:54;14.40;84.70
18712;DHT22;9485;49.386;8.674;2022-09-17T19:55:16;14.40;85.00
18712;DHT22;9485;49.386;8.674;2022-09-17T20:00:38;14.40;85.20
18712;DHT22;9485;49.386;8.674;2022-09-17T20:06:02;14.40;85.40
18712;DHT22;9485;49.386;8.674;2022-09-17T20:11:24;14.40;85.70
18712;DHT22;9485;49.386;8.674;2022-09-17T20:16:45;14.50;86.00
18712;DHT22;9485;49.386;8.674;2022-09-17T20:22:07;14.50;86.00
18712;DHT22;9485;49.386;8.674;2022-09-17T20:27:27;14.50;86.10
18712;DHT22;9485;49.386;8.674;2022-09-17T20:32:48;14.50;86.20
18712;DHT22;9485;49.386;8.674;2022-09-17T20:38:10;14.50;86.40
18712;DHT22;9485;49.386;8.674;2022-09-17T20:43:32;14.50;86.60
18712;DHT22;9485;49.386;8.674;2022-09-17T20:48:53;14.60;86.90
18712;DHT22;9485;49.386;8.674;2022-09-17T20:54:16;14.60;87.20
18712;DHT22;9485;49.386;8.674;2022-09-17T20:59:37;14.60;87.40
18712;DHT22;9485;49.386;8.674;2022-09-17T21:05:10;14.60;87.50
18712;DHT22;9485;49.386;8.674;2022-09-17T21:10:32;14.70;87.60
18712;DHT22;9485;49.386;8.674;2022-09-17T21:15:56;14.70;87.70
18712;DHT22;9485;49.386;8.674;2022-09-17T21:21:17;14.70;87.60
18712;DHT22;9485;49.386;8.674;2022-09-17T21:26:39;14.70;87.50
18712;DHT22;9485;49.386;8.674;2022-09-17T21:32:00;14.70;87.40
18712;DHT22;9485;49.386;8.674;2022-09-17T21:37:21;14.70;87.40
18712;DHT22;9485;49.386;8.674;2022-09-17T21:42:43;14.70;87.30
18712;DHT22;9485;49.386;8.674;2022-09-17T21:48:03;14.60;87.50
18712;DHT22;9485;49.386;8.674;2022-09-17T21:53:24;14.60;87.80
18712;DHT22;9485;49.386;8.674;2022-09-17T21:58:50;14.60;87.70
18712;DHT22;9485;49.386;8.674;2022-09-17T22:04:13;14.60;87.90
18712;DHT22;9485;49.386;8.674;2022-09-17T22:09:35;14.60;88.20
18712;DHT22;9485;49.386;8.674;2022-09-17T22:14:57;14.60;88.20
18712;DHT22;9485;49.386;8.674;2022-09-17T22:20:18;14.60;88.00
18712;DHT22;9485;49.386;8.674;2022-09-17T22:25:39;14.60;88.10
18712;DHT22;9485;49.386;8.674;2022-09-17T22:31:02;14.60;88.10
18712;DHT22;9485;49.386;8.674;2022-09-17T22:36:25;14.60;87.90
18712;DHT22;9485;49.386;8.674;2022-09-17T22:41:46;14.60;88.00
18712;DHT22;9485;49.386;8.674;2022-09-17T22:47:08;14.60;88.10
18712;DHT22;9485;49.386;8.674;2022-09-17T22:52:29;14.60;88.20
18712;DHT22;9485;49.386;8.674;2022-09-17T22:57:49;14.60;88.30
18712;DHT22;9485;49.386;8.674;2022-09-17T23:03:11;14.60;88.30
18712;DHT22;9485;49.386;8.674;2022-09-17T23:08:33;14.60;88.30
18712;DHT22;9485;49.386;8.674;2022-09-17T23:13:56;14.60;88.30
18712;DHT22;9485;49.386;8.674;2022-09-17T23:19:21;14.70;88.30
18712;DHT22;9485;49.386;8.674;2022-09-17T23:24:42;14.60;88.10
18712;DHT22;9485;49.386;8.674;2022-09-17T23:30:05;14.60;88.30
18712;DHT22;9485;49.386;8.674;2022-09-17T23:35:27;14.60;88.30
18712;DHT22;9485;49.386;8.674;2022-09-17T23:40:48;14.60;88.40
18712;DHT22;9485;49.386;8.674;2022-09-17T23:46:08;14.60;88.50
18712;DHT22;9485;49.386;8.674;2022-09-17T23:51:34;14.70;88.70
18712;DHT22;9485;49.386;8.674;2022-09-17T23:56:56;14.70;88.60
